Adams, OK (73901)

12:46 PM CDT on March 28, 2017 (GMT -0500)
Adams | | Change Station
Active Advisory: Special Statement

Elev 2844 ft 36.75 °N, 101.08 °W | Updated 13 minutes ago

Thunderstorm
Thunderstorm
47.3 °F
Feels Like 43 °F
N
8.0
Wind Variable Wind from NE
Gusts 13.0 mph

Today
High -- | Low -- °F
--% Chance of Precip.
Yesterday
High -- | Low -- °F
Precip. -- in
Pressure 29.91 in
Visibility 5.0 miles
Clouds Overcast 600 ft
Windchill 43 °F
Dew Point 46 °F
Humidity 94%
Rainfall 0.57 in
Snow Depth Not available.
7:35 AM 8:03 PM
New Moon, 1% visible
METAR KLBL 281735Z 35005KT 5SM TS OVC006 09/07 A2991 RMK AO1 LTG DSNT ALQDS TSB05 P0013
Pressure 29.91 in
Visibility 5.0 miles
Clouds Overcast 600 ft
Windchill 43 °F
Dew Point 46 °F
Humidity 94%
Rainfall 0.57 in
Snow Depth Not available.
7:35 AM 8:03 PM
New Moon, 1% visible
METAR KLBL 281735Z 35005KT 5SM TS OVC006 09/07 A2991 RMK AO1 LTG DSNT ALQDS TSB05 P0013

Get Your Daily Forecast Email!

Thanks for signing up!

Be on the lookout for a verification email in your inbox.

You'll start receiving severe weather alerts in your inbox..

×

10-Day Weather Forecast

Almanac

Astronomy

Mar. 28, 2017 Rise Set
Actual Time
Civil Twilight
Nautical Twilight
Astronomical Twilight
Moon
Length of Visible Light
Length of Day
Tomorrow will be .
, % of the Moon is Illuminated

Today's Extremes

State Highs State Lows

Community

WunderPhotos

Upload Photos

1,962,540 photos uploaded!

WunderBlog® & News

Nearby

Air Quality

  Air Quality AQ Index Pollutant
Not available.

Snow Depth

Station Depth Elevation

Earthquake Activity

City Distance Mag. Time & Date
Minimum magnitude displayed is 2.5.

Earthquake Activity

City Distance Mag. Time & Date
Minimum magnitude displayed is 2.5.

Coastal Water Temperatures

Place Temperature

Stations

Nearby Weather Stations

Station Location Temp. Windchill Dew Point Humidity Wind Precip. Elev Updated Type
                   

Watches & Warnings

Special Statement
Issued: 12:41 PM CDT Mar. 28, 2017 – National Weather Service

... Significant weather advisory for southwestern Beaver...
southeastern Texas... eastern Hansford and western Ochiltree counties
until 130 PM CDT...

At 1241 PM CDT, Doppler radar was tracking a strong thunderstorm 7
miles south of Spearman, moving north at 50 mph.

Nickel size hail will be possible with this storm.

Locations impacted include...
Perryton, Spearman, Hardesty, Waka and Farnsworth.

Precautionary/preparedness actions...

Torrential rainfall is also occurring with this storm, and may lead
to localized flooding. Do not drive your vehicle through flooded
roadways.

This storm may intensify, so be certain to monitor local radio
stations and available television stations for additional information
and possible warnings from the National Weather Service.


Lat... Lon 3658 10067 3606 10104 3605 10119 3606 10130
      3663 10127
time... Mot... loc 1741z 194deg 44kt 3609 10116


Guerrero